Atica — EA4943 — position and weather

sailwx.info

Track history (hours):
 
Tides and Currents Weather Stations Pressure Air Temp Water Temp Dewpoint Dewpoint Depression Visibility Wind Speed Wind Dir Waves Ship Positions

Atica

Last reported at 2015-Aug-04 11:04 UTC. Time now 2015-Aug-04 15:55 UTC.
Position N 39°31' E 002°28'.

Type: Sailing vessel. MMSI: 224499180.

Date/timePositionNaut miles runAvg speedWind from/ knotsBaromVisibWave heightAir tempDewpointWater temp
2015-Aug-04 11:04N 39°31' E 002°28'0 0.0
2015-Aug-04 06:10N 39°31' E 002°28'0 0.0
2015-Aug-03 23:10N 39°31' E 002°28'0 0.0
2015-Aug-03 20:28N 39°31' E 002°28'0 0.0
2015-Aug-03 16:31N 39°31' E 002°28'0 0.2
2015-Aug-03 15:29N 39°31' E 002°28'4 4.6
2015-Aug-03 14:33N 39°27' E 002°30'6 6.1
2015-Aug-03 13:33N 39°24' E 002°36'6 5.8
2015-Aug-03 12:33N 39°20' E 002°43'4 4.5
2015-Aug-03 11:33N 39°19' E 002°48'5 4.8
2015-Aug-03 10:33N 39°21' E 002°54'3 2.1
2015-Aug-03 09:05N 39°21' E 002°58'0 0.0
2015-Aug-03 08:29N 39°21' E 002°58'2 0.8
2015-Aug-03 06:22N 39°20' E 002°59'0 0.0
2015-Aug-03 05:28N 39°20' E 002°59'0 0.0
2015-Aug-03 04:22N 39°20' E 002°59'0 0.0
2015-Aug-03 03:16N 39°20' E 002°59'0 0.0
2015-Aug-03 02:28N 39°20' E 002°59'0 0.0
2015-Aug-03 01:28N 39°20' E 002°59'0 0.0
2015-Aug-03 00:28N 39°20' E 002°59'0 0.0
2015-Aug-02 23:28N 39°20' E 002°59'0 0.0
2015-Aug-02 21:16N 39°20' E 002°59'0 0.0
2015-Aug-02 20:22N 39°20' E 002°59'0 0.0
2015-Aug-02 19:16N 39°20' E 002°59'0 0.0
2015-Aug-02 18:28N 39°20' E 002°59'0 0.0
2015-Aug-02 17:22N 39°20' E 002°59'0 0.0
2015-Aug-02 15:28N 39°20' E 002°59'0 0.0
2015-Aug-02 14:28N 39°20' E 002°59'0 0.0
2015-Aug-02 13:10N 39°20' E 002°59'0 0.0
2015-Aug-02 12:16N 39°20' E 002°59'0 0.0
2015-Aug-02 11:28N 39°20' E 002°59'0 0.0
2015-Aug-02 10:28N 39°20' E 002°59'0 0.0
2015-Aug-02 09:22N 39°20' E 002°59'0 0.0
2015-Aug-02 08:28N 39°20' E 002°59'0 0.0
2015-Aug-02 07:28N 39°20' E 002°59'0 0.0
2015-Aug-02 06:28N 39°20' E 002°59'0 0.0
2015-Aug-02 05:28N 39°20' E 002°59'0 0.0
2015-Aug-02 04:28N 39°20' E 002°59'0 0.0
2015-Aug-02 03:10N 39°20' E 002°59'0 0.0
2015-Aug-02 01:16N 39°20' E 002°59'0 0.0
2015-Aug-02 00:16N 39°20' E 002°59'0 0.0
2015-Aug-01 23:28N 39°20' E 002°59'0 0.0
2015-Aug-01 22:10N 39°20' E 002°59'0 0.0
2015-Aug-01 21:10N 39°20' E 002°59'0 0.0
2015-Aug-01 20:28N 39°20' E 002°59'0 0.0
2015-Aug-01 19:28N 39°20' E 002°59'0 0.0
2015-Aug-01 18:16N 39°20' E 002°59'0 0.0
2015-Aug-01 17:22N 39°20' E 002°59'0 0.0
2015-Aug-01 16:22N 39°20' E 002°59'0 0.0
2015-Aug-01 15:28N 39°20' E 002°59'1 1.0
2015-Aug-01 14:33N 39°19' E 002°59'2 1.5
2015-Aug-01 13:20N 39°18' E 003°01'0 0.0
2015-Aug-01 12:26N 39°18' E 003°01'0 0.0
2015-Aug-01 11:32N 39°18' E 003°01'0 0.0
2015-Aug-01 10:26N 39°18' E 003°01'0 0.0
2015-Aug-01 08:32N 39°18' E 003°01'0 0.0
2015-Aug-01 07:20N 39°18' E 003°01'0 0.0
2015-Aug-01 06:32N 39°18' E 003°01'0 0.0
2015-Aug-01 05:26N 39°18' E 003°01'0 0.0
2015-Aug-01 04:32N 39°18' E 003°01'0 0.0
2015-Aug-01 03:32N 39°18' E 003°01'0 0.0
2015-Aug-01 02:32N 39°18' E 003°01'0 0.0
2015-Aug-01 01:32N 39°18' E 003°01'0 0.0
2015-Aug-01 00:32N 39°18' E 003°01'0 0.0
2015-Jul-31 23:14N 39°18' E 003°01'0 0.0
2015-Jul-31 22:32N 39°18' E 003°01'0 0.0
2015-Jul-31 21:32N 39°18' E 003°01'0 0.0
2015-Jul-31 20:32N 39°18' E 003°01'0 0.0
2015-Jul-31 19:20N 39°18' E 003°01'0 0.0
2015-Jul-31 18:32N 39°18' E 003°01'0 0.0
2015-Jul-31 17:32N 39°18' E 003°01'  
2015-Jul-25 23:23N 39°48' E 002°41'0 0.0
2015-Jul-25 22:06N 39°48' E 002°41'0 0.0
2015-Jul-25 19:12N 39°48' E 002°41'0 0.0
2015-Jul-25 17:12N 39°48' E 002°41'0 0.0
2015-Jul-25 16:27N 39°48' E 002°41'0 0.0
2015-Jul-25 13:32N 39°48' E 002°41'0 0.0
2015-Jul-25 12:32N 39°48' E 002°41'  
Track history (hours):
 
Tides and Currents Weather Stations Pressure Air Temp Water Temp Dewpoint Dewpoint Depression Visibility Wind Speed Wind Dir Waves Ship Positions

Atica

Last reported at 2015-Aug-04 11:04 UTC. Time now 2015-Aug-04 15:55 UTC.
Position N 39°31' E 002°28'.

Type: Sailing vessel. MMSI: 224499180.

Date/timePositionNaut miles runAvg speedWind from/ knotsBaromVisibWave heightAir tempDewpointWater temp
2015-Aug-04 11:04N 39°31' E 002°28'0 0.0
2015-Aug-04 06:10N 39°31' E 002°28'0 0.0
2015-Aug-03 23:10N 39°31' E 002°28'0 0.0
2015-Aug-03 20:28N 39°31' E 002°28'0 0.0
2015-Aug-03 16:31N 39°31' E 002°28'0 0.2
2015-Aug-03 15:29N 39°31' E 002°28'4 4.6
2015-Aug-03 14:33N 39°27' E 002°30'6 6.1
2015-Aug-03 13:33N 39°24' E 002°36'6 5.8
2015-Aug-03 12:33N 39°20' E 002°43'4 4.5
2015-Aug-03 11:33N 39°19' E 002°48'5 4.8
2015-Aug-03 10:33N 39°21' E 002°54'3 2.1
2015-Aug-03 09:05N 39°21' E 002°58'0 0.0
2015-Aug-03 08:29N 39°21' E 002°58'2 0.8
2015-Aug-03 06:22N 39°20' E 002°59'0 0.0
2015-Aug-03 05:28N 39°20' E 002°59'0 0.0
2015-Aug-03 04:22N 39°20' E 002°59'0 0.0
2015-Aug-03 03:16N 39°20' E 002°59'0 0.0
2015-Aug-03 02:28N 39°20' E 002°59'0 0.0
2015-Aug-03 01:28N 39°20' E 002°59'0 0.0
2015-Aug-03 00:28N 39°20' E 002°59'0 0.0
2015-Aug-02 23:28N 39°20' E 002°59'0 0.0
2015-Aug-02 21:16N 39°20' E 002°59'0 0.0
2015-Aug-02 20:22N 39°20' E 002°59'0 0.0
2015-Aug-02 19:16N 39°20' E 002°59'0 0.0
2015-Aug-02 18:28N 39°20' E 002°59'0 0.0
2015-Aug-02 17:22N 39°20' E 002°59'0 0.0
2015-Aug-02 15:28N 39°20' E 002°59'0 0.0
2015-Aug-02 14:28N 39°20' E 002°59'0 0.0
2015-Aug-02 13:10N 39°20' E 002°59'0 0.0
2015-Aug-02 12:16N 39°20' E 002°59'0 0.0
2015-Aug-02 11:28N 39°20' E 002°59'0 0.0
2015-Aug-02 10:28N 39°20' E 002°59'0 0.0
2015-Aug-02 09:22N 39°20' E 002°59'0 0.0
2015-Aug-02 08:28N 39°20' E 002°59'0 0.0
2015-Aug-02 07:28N 39°20' E 002°59'0 0.0
2015-Aug-02 06:28N 39°20' E 002°59'0 0.0
2015-Aug-02 05:28N 39°20' E 002°59'0 0.0
2015-Aug-02 04:28N 39°20' E 002°59'0 0.0
2015-Aug-02 03:10N 39°20' E 002°59'0 0.0
2015-Aug-02 01:16N 39°20' E 002°59'0 0.0
2015-Aug-02 00:16N 39°20' E 002°59'0 0.0
2015-Aug-01 23:28N 39°20' E 002°59'0 0.0
2015-Aug-01 22:10N 39°20' E 002°59'0 0.0
2015-Aug-01 21:10N 39°20' E 002°59'0 0.0
2015-Aug-01 20:28N 39°20' E 002°59'0 0.0
2015-Aug-01 19:28N 39°20' E 002°59'0 0.0
2015-Aug-01 18:16N 39°20' E 002°59'0 0.0
2015-Aug-01 17:22N 39°20' E 002°59'0 0.0
2015-Aug-01 16:22N 39°20' E 002°59'0 0.0
2015-Aug-01 15:28N 39°20' E 002°59'1 1.0
2015-Aug-01 14:33N 39°19' E 002°59'2 1.5
2015-Aug-01 13:20N 39°18' E 003°01'0 0.0
2015-Aug-01 12:26N 39°18' E 003°01'0 0.0
2015-Aug-01 11:32N 39°18' E 003°01'0 0.0
2015-Aug-01 10:26N 39°18' E 003°01'0 0.0
2015-Aug-01 08:32N 39°18' E 003°01'0 0.0
2015-Aug-01 07:20N 39°18' E 003°01'0 0.0
2015-Aug-01 06:32N 39°18' E 003°01'0 0.0
2015-Aug-01 05:26N 39°18' E 003°01'0 0.0
2015-Aug-01 04:32N 39°18' E 003°01'0 0.0
2015-Aug-01 03:32N 39°18' E 003°01'0 0.0
2015-Aug-01 02:32N 39°18' E 003°01'0 0.0
2015-Aug-01 01:32N 39°18' E 003°01'0 0.0
2015-Aug-01 00:32N 39°18' E 003°01'0 0.0
2015-Jul-31 23:14N 39°18' E 003°01'0 0.0
2015-Jul-31 22:32N 39°18' E 003°01'0 0.0
2015-Jul-31 21:32N 39°18' E 003°01'0 0.0
2015-Jul-31 20:32N 39°18' E 003°01'0 0.0
2015-Jul-31 19:20N 39°18' E 003°01'0 0.0
2015-Jul-31 18:32N 39°18' E 003°01'0 0.0
2015-Jul-31 17:32N 39°18' E 003°01'  
2015-Jul-25 23:23N 39°48' E 002°41'0 0.0
2015-Jul-25 22:06N 39°48' E 002°41'0 0.0
2015-Jul-25 19:12N 39°48' E 002°41'0 0.0
2015-Jul-25 17:12N 39°48' E 002°41'0 0.0
2015-Jul-25 16:27N 39°48' E 002°41'0 0.0
2015-Jul-25 13:32N 39°48' E 002°41'0 0.0
2015-Jul-25 12:32N 39°48' E 002°41'  

Dump ship's entire track history